Weather observations for the past three days for
The Gabreski Airport
Metric (Imperial)
Date Time (edt) Wind (kph) Vis. (km) Weather Sky Cond. Temperature (ºC) Relative Humidity Wind Chill (°C) Heat Index (°C) Pressure Precipitation (cm)
Air Dwpt 6 hour altimeter (cm) sea level (mb) 1 hr 3 hr 6 hr
Max. Min.
06 09:53 SW 20 G 39 16.09 Fair CLR 15 11.1 78% 75.92 1012.2
06 08:53 SW 19 G 44 16.09 Fair CLR 15 11.1 78% 75.95 1012.4
06 07:53 SW 15 G 41 14.48 Fair CLR 13.9 11.1 13.9 12.8 83% 75.95 1012.3
06 06:53 SW 17 G 41 12.87 Fair CLR 13.3 11.1 87% 75.95 1012.3
06 05:53 SW 22 G 33 14.48 Fair CLR 12.8 11.1 90% 75.92 1012.2
06 04:53 SW 17 G 39 14.48 Fair CLR 12.8 11.1 90% 75.95 1012.4
06 03:53 SW 13 G 35 14.48 A Few Clouds FEW011 12.8 11.1 90% 75.97 1012.9
06 02:53 SW 19 G 50 16.09 Fair CLR 13.3 11.1 87% 75.97 1012.8
06 01:53 SW 17 G 37 14.48 Fair CLR 12.8 11.1 13.9 12.8 90% 75.97 1012.8
06 00:53 SW 19 G 39 16.09 Fair CLR 13.3 11.1 87% 76 1013.2
05 23:53 SW 19 G 33 16.09 Fair CLR 13.3 10.6 84% 76 1013.2
05 22:53 SW 22 G 46 16.09 Fair CLR 13.3 10.6 84% 76 1013.2
05 21:53 SW 22 G 43 16.09 Fair CLR 13.3 10 81% 76 1013.0
05 20:53 SW 20 G 43 16.09 Fair CLR 13.9 10 78% 75.95 1012.3
05 19:53 SW 19 G 48 16.09 Fair CLR 13.9 9.4 16.7 13.9 74% 75.9 1011.6
05 18:53 SW 24 G 59 16.09 Fair CLR 14.4 10 75% 75.84 1010.9
05 17:53 SW 22 G 50 16.09 Fair CLR 15 10 72% 75.82 1010.6
05 16:53 SW 26 G 46 16.09 Fair CLR 15.6 10 70% 75.82 1010.6
05 15:53 SW 28 G 50 16.09 Fair CLR 16.1 10 67% 75.84 1010.9
05 14:53 SW 33 G 50 16.09 Fair and Breezy CLR 15 10 72% 75.9 1011.8
05 13:53 SW 26 G 46 16.09 Fair CLR 15 10 16.1 12.8 72% 75.92 1012.0
05 12:53 SW 26 G 39 16.09 Fair CLR 16.1 10.6 70% 75.95 1012.3
05 11:53 SW 20 G 44 16.09 Fair CLR 15.6 10.6 72% 75.97 1012.9
05 10:53 SW 20 G 41 16.09 Fair CLR 15.6 10.6 72% 76 1013.0
05 09:53 SW 19 G 31 14.48 Mostly Cloudy BKN110 14.4 10.6 78% 75.97 1012.7
05 08:53 SW 17 G 31 16.09 A Few Clouds FEW120 13.9 10.6 81% 75.97 1012.7
05 07:53 SW 17 G 31 14.48 Fair CLR 13.3 10.6 13.3 11.1 84% 75.95 1012.6
05 06:53 SW 11 12.87 Fair CLR 11.7 10 89% 75.92 1012.2
05 05:53 SW 9 14.48 Partly Cloudy SCT120 11.7 9.4 86% 75.9 1011.6
05 04:53 SW 11 16.09 Fair CLR 11.1 9.4 89% 75.9 1011.6
05 03:53 SW 9 16.09 Fair CLR 11.1 8.9 86% 75.9 1011.8
05 02:53 SW 9 16.09 Fair CLR 11.1 8.9 86% 75.9 1011.8
05 01:53 SW 11 16.09 Fair CLR 11.1 8.9 11.7 10.6 86% 75.95 1012.3
05 00:53 SW 11 16.09 Fair CLR 11.1 8.9 86% 75.97 1012.7
04 23:53 SW 11 16.09 Fair CLR 11.1 8.9 86% 75.97 1012.9
04 22:53 SW 11 16.09 Fair CLR 11.1 8.9 86% 75.97 1012.9
04 21:53 SW 13 16.09 Fair CLR 11.1 8.3 83% 75.97 1012.9
04 20:53 SW 17 16.09 Fair CLR 11.7 8.3 80% 75.95 1012.3
04 19:53 SW 15 G 35 16.09 Fair CLR 10.6 8.3 16.1 10.6 86% 75.9 1011.6
04 18:53 SW 19 G 41 16.09 Fair CLR 11.7 8.3 80% 75.87 1011.6
04 17:53 SW 20 G 35 16.09 Fair CLR 12.8 7.8 72% 75.9 1011.9
04 16:53 SW 26 G 44 16.09 Fair CLR 14.4 7.2 62% 75.9 1011.8
04 15:53 SW 24 G 43 16.09 Fair CLR 15 7.2 60% 75.92 1012.0
04 14:53 SW 22 G 43 16.09 Fair CLR 15 6.7 58% 75.95 1012.4
04 13:53 SW 28 G 43 16.09 Fair CLR 15 7.2 15.6 12.2 60% 75.97 1012.7
04 12:53 SW 26 G 41 16.09 Fair CLR 15 8.3 64% 76 1013.3
04 11:53 SW 22 G 33 16.09 Fair CLR 15.6 6.7 56% 76.05 1013.9
04 10:53 SW 22 G 35 16.09 Fair CLR 15 6.7 58% 76.07 1014.1
04 09:53 SW 22 G 43 16.09 Fair CLR 14.4 5.6 56% 76.07 1014.1
04 08:53 SW 19 G 46 16.09 Fair CLR 14.4 4.4 51% 76.1 1014.7
04 07:53 SW 15 G 33 16.09 Fair CLR 12.2 5 12.2 -1.1 62% 76.1 1014.7
04 06:53 SW 17 G 28 16.09 Fair CLR 10.6 5.6 71% 76.1 1014.4
04 05:53 SW 15 16.09 Fair CLR 8.9 5 77% 7 76.07 1014.1
04 04:53 W 7 16.09 Fair CLR 5 1.1 76% 4 76.05 1013.8
04 03:53 W 6 16.09 Fair CLR 0 -2.8 82% 76.02 1013.5
04 02:53 Calm 16.09 Fair CLR -1.1 -4.4 79% 76 1013.1
04 01:53 Calm 16.09 Fair CLR -0.6 -4.4 7.8 -1.1 76% 76 1013.0
04 00:53 Calm 16.09 Fair CLR 0 -5 69% 75.97 1013.0
03 23:53 Calm 16.09 Fair CLR 0 -4.4 73% 75.97 1012.9
03 22:53 Calm 16.09 Fair CLR 1.1 -3.9 70% 75.97 1012.7
03 21:53 Calm 16.09 A Few Clouds FEW090 1.7 -3.3 70% 75.95 1012.5
03 20:53 Calm 16.09 Partly Cloudy SCT095 3.9 -2.2 65% 75.9 1011.9
03 19:53 Calm 16.09 Fair CLR 7.8 -1.7 14.4 7.8 51% 75.84 1011.1
03 18:53 NW 13 16.09 Fair CLR 13.3 -4.4 29% 75.82 1010.7
03 17:53 NW 22 G 35 16.09 Fair CLR 13.3 -4.4 29% 75.77 1010.2
03 16:53 NW 35 G 52 16.09 Fair and Breezy CLR 13.3 -5.6 27% 75.74 1009.7
03 15:53 W 37 G 63 16.09 A Few Clouds and Breezy FEW070 13.3 -5.6 27% 75.72 1009.6
03 14:53 NW 30 G 46 16.09 Fair CLR 12.8 -5.6 28% 75.72 1009.6
03 13:53 NW 33 G 48 16.09 Mostly Cloudy and Breezy BKN060 BKN080 12.2 -5 13.3 7.8 30% 75.77 1010.0
03 12:53 NW 33 G 54 16.09 A Few Clouds and Breezy FEW080 12.8 -3.3 33% 75.74 1009.8
03 11:53 NW 35 G 61 16.09 Partly Cloudy and Breezy SCT055 11.7 -2.8 37% 75.74 1009.8
03 10:53 NW 35 G 52 16.09 Fair and Breezy CLR 11.7 -1.7 40% 75.74 1010.0
Date Time (edt) Wind (kph) Vis. (km) Weather Sky Cond. Air Dwpt Max. Min. Relative Humidity Wind Chill (°C) Heat Index (°C) altimeter (cm) sea level (mb) 1 hr 3 hr 6 hr
6 hour
Temperature (ºC) Pressure Precipitation (cm)